Weather - Helsinki Query any day in the database

Current weather  

Weather data for a selected day (2006-01-01 -2020-10-30)
Enter date:     <-     scroll days         ->
day curves
Low temperature°C +6.623:00
High temperature°C +12.314:30
Low wind chill°C 2.706:30
Average temperature°C +9.0 
High wind speed (10 min) m/s 14.612:00
Low pressurehPa 994.600:00
High pressurehPa 1004.919:00
Low R.H% 4314:00
High R.H% 7823:30
Day weather data as a table
Date Time Temp
°C
Chill
°C
Pressure
hPA
Wind
m/s
Hum
%
Precip
mm
2018-09-27 23:30:00 6.9  6.4  1002.1 1.3 78 -
2018-09-27 23:00:00 6.6  5.1  1002.6 2.1 78 -
2018-09-27 22:30:00 6.9  4.6  1003.1 3.3 75 -
2018-09-27 22:00:00 7.1  4.8  1003.4 3.4 72 -
2018-09-27 21:30:00 7.2  4.9  1003.8 3.4 70 -
2018-09-27 21:00:00 7.4  5.3  1004.2 3.1 68 -
2018-09-27 20:30:00 7.8  5.6  1004.3 3.4 67 -
2018-09-27 20:00:00 8.3  5.8  1004.5 4.2 64 -
2018-09-27 19:30:00 8.4  6.0  1004.8 4.1 63 -
2018-09-27 19:00:00 8.6  6.2  1004.9 4.1 61 -
2018-09-27 18:30:00 9.3  6.6  1004.5 5.3 56 -
2018-09-27 18:00:00 9.8  6.5  1004.4 7.5 51 -
2018-09-27 17:30:00 10.2  6.8  1004.2 8.6 50 -
2018-09-27 17:00:00 10.7  7.2  1004.0 9.5 48 -
2018-09-27 16:30:00 11.1  7.7  1003.7 9.9 47 -
2018-09-27 16:00:00 11.0  7.3  1003.7 11.4 46 -
2018-09-27 15:30:00 11.8  8.2  1003.4 11.9 44 -
2018-09-27 15:00:00 11.7  8.2  1003.0 11.5 44 -
2018-09-27 14:30:00 12.3  8.9  1002.6 12.1 44 -
2018-09-27 14:00:00 12.0  8.8  1002.1 10.2 43 -
2018-09-27 13:30:00 11.7  8.3  1001.7 10.7 44 -
2018-09-27 13:00:00 11.3  7.2  1001.5 14.4 45 -
2018-09-27 12:30:00 11.1  7.0  1000.9 13.8 48 -
2018-09-27 12:00:00 10.9  6.6  1000.7 14.6 49 -
2018-09-27 11:30:00 10.4  6.1  1000.2 13.6 53 -
2018-09-27 11:00:00 10.1  6.1  999.8 11.3 56 -
2018-09-27 10:30:00 9.6  5.2  999.3 12.5 58 -
2018-09-27 10:00:00 9.2  4.6  999.3 12.6 61 -
2018-09-27 09:30:00 8.8  4.2  998.7 11.8 62 -
2018-09-27 09:00:00 8.3  3.8  998.4 10.7 66 -
2018-09-27 08:30:00 7.8  3.7  998.3 8.2 68 -
2018-09-27 08:00:00 7.7  3.4  998.1 8.9 69 -
2018-09-27 07:30:00 7.4  3.3  997.8 7.8 70 -
2018-09-27 07:00:00 7.5  3.2  997.6 8.6 70 -
2018-09-27 06:30:00 7.4  2.7  997.1 10.3 70 -
2018-09-27 06:00:00 7.5  3.1  996.7 9.1 70 -
2018-09-27 05:30:00 7.8  3.1  996.4 10.6 68 -
2018-09-27 05:00:00 8.0  3.3  996.2 11.3 67 -
2018-09-27 04:30:00 8.3  3.7  996.2 10.9 66 -
2018-09-27 04:00:00 8.3  4.0  996.1 9.7 65 -
2018-09-27 03:30:00 8.3  3.8  995.9 10.5 64 -
2018-09-27 03:00:00 8.5  4.2  995.7 10.1 63 -
2018-09-27 02:30:00 8.6  4.3  995.4 10.2 63 -
2018-09-27 02:00:00 8.7  4.4  995.5 10.2 63 -
2018-09-27 01:30:00 8.6  4.7  995.3 8.6 65 -
2018-09-27 01:00:00 8.8  4.7  995.1 9.7 66 -
2018-09-27 00:30:00 9.0  4.8  994.9 10.2 68 -
2018-09-27 00:00:00 9.1  5.1  994.6 9.4 72 -
Unit conversions: